Hopkinton, MA

10:21 AM EDT on September 20, 2014 (GMT -0400)
Saddle Hill Estates | Change Station
CLOSE
Current Station
Personal Weather Station
Location: Hopkinton, MA
Elevation: 497 ft
Nearby Weather Stations

Elev 497 ft 42.24 °N, 71.55 °W | Updated 0 second ago

Clear
Clear
61.3 °F
Feels Like 61.3 °F
N
2.2
Wind Variable Wind from South
Gusts 6.0 mph

Today
High -- | Low -- °F
--% Chance of Precip.
Yesterday
High -- | Low -- °F
Precip. -- in
6:31 AM 6:46 PM
Waning Crescent, 12% visible
Pressure 30.32 in
Visibility 10.0 miles
Clouds Clear
Dew Point 48 °F
Humidity 61%
Rainfall 0.00 in
Snow Depth Not available.
UV 4 out of 12
Pollen 3.50 out of 12
Air Quality Not available.
Flu Activity Not available.
METAR KORH 201354Z 20011KT 10SM CLR 13/08 A3031 RMK AO2 SLP268 T01330083

More Conditions Fewer Conditions

Pressure 30.32 in
Visibility 10.0 miles
Clouds Clear
Dew Point 48 °F
Humidity 61%
Rainfall 0.00 in
Snow Depth Not available.
UV 4 out of 12
Pollen 3.50 out of 12
Air Quality Not available.
Flu Activity Not available.
METAR KORH 201354Z 20011KT 10SM CLR 13/08 A3031 RMK AO2 SLP268 T01330083

More Conditions Fewer Conditions

10-Day Weather Forecast

Almanac

Astronomy

Sep. 20, 2014 Rise Set
Actual Time 6:31 AM EDT 6:46 PM EDT
Civil Twilight 6:03 AM EDT 7:14 PM EDT
Nautical Twilight 5:30 AM EDT 7:47 PM EDT
Astronomical Twilight 4:56 AM EDT 8:21 PM EDT
Moon 3:04 AM EDT 4:51 PM EDT
Length of Visible Light 13h 11m
Length of Day
12h 15m
Tomorrow will be 2m 48s shorter.
Waning Crescent, 12% of the Moon is Illuminated
Today
Waning Crescent
Sep 24
New
Oct 1
First Quarter
Oct 8
Full
Oct 15
Last Quarter

Today's Extremes

State Highs State Lows

Community

WunderPhotos

Upload Photos

1,754,871 photos uploaded!

Nearby

Air Quality

  Air Quality AQ Index Pollutant
Saturday Good
PM2.5
Saturday Good
OZONE

Snow Depth

Station Depth Elevation
No new snow has been reported.

Earthquake Activity

City Distance Mag. Time & Date
No recent earthquake activity has been reported nearby.
Minimum magnitude displayed is 2.5.

Coastal Water Temperatures

Place Temperature
Newport, RI 64.9 °F
Quonset Point, RI 66.9 °F
Conimicut Light, RI 66.9 °F

Nearby Weather Stations